createdAt,value
2016-11-13T00:00:59.813Z,2.06
2016-11-13T00:01:59.805Z,1.98
2016-11-13T00:02:59.817Z,2.06
2016-11-13T00:03:59.741Z,1.98
2016-11-13T00:04:59.757Z,2.08
2016-11-13T00:05:59.760Z,2.04
2016-11-13T00:06:59.750Z,2.05
2016-11-13T00:07:59.759Z,2.05
2016-11-13T00:08:59.919Z,1.9
2016-11-13T00:09:59.901Z,1.92
2016-11-13T00:10:59.898Z,2.06
2016-11-13T00:11:59.916Z,2.06
2016-11-13T00:12:59.934Z,2.04
2016-11-13T00:13:59.835Z,2.02
2016-11-13T00:14:59.864Z,2.05
2016-11-13T00:16:00.090Z,2.06
2016-11-13T00:16:59.854Z,2.06
2016-11-13T00:17:59.929Z,2.15
2016-11-13T00:18:59.851Z,2.06
2016-11-13T00:19:59.946Z,2.08
2016-11-13T00:20:59.801Z,2.13
2016-11-13T00:21:59.793Z,2.05
2016-11-13T00:22:59.882Z,2.16
2016-11-13T00:23:59.862Z,2.13
2016-11-13T00:24:59.870Z,2.09
2016-11-13T00:25:59.871Z,2.2
2016-11-13T00:26:59.801Z,2.2
2016-11-13T00:27:59.876Z,2.05
2016-11-13T00:28:59.888Z,2.23
2016-11-13T00:29:59.888Z,2.12
2016-11-13T00:30:59.809Z,2.22
2016-11-13T00:31:59.985Z,2.2
2016-11-13T00:32:59.895Z,2.09
2016-11-13T00:33:59.914Z,2.18
2016-11-13T00:34:59.982Z,2.2
2016-11-13T00:35:59.978Z,2.26
2016-11-13T00:36:59.846Z,2.15
2016-11-13T00:37:59.906Z,2.11
2016-11-13T00:38:59.830Z,2.29
2016-11-13T00:39:59.916Z,2.09
2016-11-13T00:40:59.995Z,2.05
2016-11-13T00:41:59.928Z,2.05
2016-11-13T00:42:59.851Z,2.15
2016-11-13T00:44:00.006Z,2.12
2016-11-13T00:45:00.014Z,2.11
2016-11-13T00:45:59.929Z,2.13
2016-11-13T00:46:59.936Z,2.16
2016-11-13T00:47:59.961Z,2.09
2016-11-13T00:48:59.928Z,2.15
2016-11-13T00:50:00.018Z,2.04
2016-11-13T00:50:59.863Z,2.09
2016-11-13T00:51:59.945Z,2.01
2016-11-13T00:52:59.893Z,1.98
2016-11-13T00:53:59.951Z,2.04
2016-11-13T00:54:59.897Z,1.92
2016-11-13T00:55:59.874Z,1.98
2016-11-13T00:56:59.952Z,1.98
2016-11-13T00:58:00.052Z,1.9
2016-11-13T00:58:59.881Z,1.97
2016-11-13T01:00:00.021Z,1.98
2016-11-13T01:00:59.896Z,1.97
2016-11-13T01:02:00.036Z,2.08
2016-11-13T01:02:59.892Z,2.01
2016-11-13T01:03:59.920Z,2.04
2016-11-13T01:04:59.908Z,1.94
2016-11-13T01:05:59.977Z,2.01
2016-11-13T01:06:59.911Z,2.05
2016-11-13T01:08:00.104Z,2.02
2016-11-13T01:08:59.941Z,2.04
2016-11-13T01:09:59.913Z,2.02
2016-11-13T01:11:00.071Z,1.94
2016-11-13T01:12:00.028Z,2.05
2016-11-13T01:13:00.004Z,1.98
2016-11-13T01:14:00.007Z,2.09
2016-11-13T01:15:00.083Z,2.08
2016-11-13T01:15:59.922Z,2.04
2016-11-13T01:16:59.931Z,2.06
2016-11-13T01:18:00.014Z,2.01
2016-11-13T01:19:00.094Z,2.02
2016-11-13T01:19:59.968Z,1.94
2016-11-13T01:21:00.039Z,2.04
2016-11-13T01:22:00.036Z,2.04
2016-11-13T01:23:00.035Z,2.04
2016-11-13T01:24:00.044Z,1.94
2016-11-13T01:25:00.065Z,1.93
2016-11-13T01:25:59.965Z,2.02
2016-11-13T01:27:00.121Z,1.98
2016-11-13T01:28:00.118Z,1.89
2016-11-13T01:28:59.986Z,1.97
2016-11-13T01:30:00.042Z,1.87
2016-11-13T01:31:00.059Z,1.94
2016-11-13T01:31:59.975Z,1.94
2016-11-13T01:33:00.055Z,1.92
2016-11-13T01:34:00.141Z,2.04
2016-11-13T01:35:00.143Z,1.84
2016-11-13T01:36:00.080Z,2.04
2016-11-13T01:37:00.157Z,1.94
2016-11-13T01:38:00.069Z,2.02
2016-11-13T01:39:00.073Z,2.02
2016-11-13T01:40:00.092Z,2.04
2016-11-13T01:41:00.087Z,2.02
2016-11-13T01:42:00.075Z,2.02
2016-11-13T01:43:00.086Z,2.09
2016-11-13T01:44:00.164Z,2.04
2016-11-13T01:45:00.019Z,2.02
2016-11-13T01:46:00.098Z,2.06
2016-11-13T01:47:00.102Z,2.11
2016-11-13T01:48:00.106Z,2.06
2016-11-13T01:49:00.104Z,2.12
2016-11-13T01:50:00.094Z,2.01
2016-11-13T01:51:00.114Z,2.11
2016-11-13T01:52:00.131Z,2.02
2016-11-13T01:53:00.098Z,2.06
2016-11-13T01:54:00.042Z,2.04
2016-11-13T01:55:00.187Z,2.11
2016-11-13T01:56:00.134Z,2.04
2016-11-13T01:57:00.063Z,2.04
2016-11-13T01:58:00.057Z,2.06
2016-11-13T01:59:00.196Z,2.12
2016-11-13T02:00:00.141Z,2.06
2016-11-13T02:01:00.150Z,2.13
2016-11-13T02:02:00.147Z,2.05
2016-11-13T02:03:00.136Z,2.11
2016-11-13T02:04:00.136Z,2.06
2016-11-13T02:05:00.154Z,2.06
2016-11-13T02:06:00.170Z,2.13
2016-11-13T02:07:00.227Z,2.09
2016-11-13T02:08:00.087Z,2.09
2016-11-13T02:09:00.236Z,2.08
2016-11-13T02:10:00.248Z,2.11
2016-11-13T02:11:00.164Z,2.16
2016-11-13T02:12:00.075Z,2.11
2016-11-13T02:13:00.174Z,2.11
2016-11-13T02:14:00.169Z,2.11
2016-11-13T02:15:00.243Z,2.12
2016-11-13T02:16:00.251Z,2.08
2016-11-13T02:17:00.285Z,2.08
2016-11-13T02:18:00.180Z,2.06
2016-11-13T02:19:00.183Z,2.04
2016-11-13T02:20:00.267Z,2.2
2016-11-13T02:21:00.262Z,2.11
2016-11-13T02:22:00.181Z,2.09
2016-11-13T02:23:00.195Z,2.04
2016-11-13T02:24:00.273Z,2.08
2016-11-13T02:25:00.115Z,2.09
2016-11-13T02:26:00.201Z,2.11
2016-11-13T02:27:00.291Z,2.13
2016-11-13T02:28:00.290Z,2.13
2016-11-13T02:29:00.161Z,2.11
2016-11-13T02:30:00.281Z,2.06
2016-11-13T02:31:00.288Z,2.13
2016-11-13T02:32:00.134Z,2.12
2016-11-13T02:33:00.304Z,2.16
2016-11-13T02:34:00.161Z,2.08
2016-11-13T02:35:00.303Z,2.18
2016-11-13T02:36:00.159Z,2.16
2016-11-13T02:37:00.302Z,2.24
2016-11-13T02:38:00.238Z,2.09
2016-11-13T02:39:00.334Z,2.16
2016-11-13T02:40:00.330Z,2.18
2016-11-13T02:41:00.353Z,2.06
2016-11-13T02:42:00.255Z,2.11
2016-11-13T02:43:00.242Z,2.2
2016-11-13T02:44:00.324Z,2.16
2016-11-13T02:45:00.266Z,2.16
2016-11-13T02:46:00.327Z,2.16
2016-11-13T02:47:00.210Z,2.2
2016-11-13T02:48:00.365Z,2.12
2016-11-13T02:49:00.185Z,2.13
2016-11-13T02:50:00.265Z,2.18
2016-11-13T02:51:00.337Z,2.16
2016-11-13T02:52:00.187Z,2.23
2016-11-13T02:53:00.202Z,2.26
2016-11-13T02:54:00.276Z,2.22
2016-11-13T02:55:00.279Z,2.18
2016-11-13T02:56:00.304Z,2.26
2016-11-13T02:57:00.354Z,2.24
2016-11-13T02:58:00.388Z,2.13
2016-11-13T02:59:00.295Z,2.31
2016-11-13T03:00:00.319Z,2.18
2016-11-13T03:01:00.378Z,2.09
2016-11-13T03:02:00.298Z,2.18
2016-11-13T03:03:00.233Z,2.15
2016-11-13T03:04:00.386Z,2.12
2016-11-13T03:05:00.402Z,2.24
2016-11-13T03:06:00.384Z,2.27
2016-11-13T03:07:00.305Z,2.3
2016-11-13T03:08:00.240Z,2.12
2016-11-13T03:09:00.241Z,2.26
2016-11-13T03:10:00.324Z,2.23
2016-11-13T03:11:00.318Z,2.23
2016-11-13T03:12:00.411Z,2.23
2016-11-13T03:13:00.244Z,2.18
2016-11-13T03:14:00.335Z,2.27
2016-11-13T03:15:00.256Z,2.23
2016-11-13T03:16:00.404Z,2.33
2016-11-13T03:17:00.348Z,2.2
2016-11-13T03:18:00.381Z,2.24
2016-11-13T03:19:00.258Z,2.24
2016-11-13T03:20:00.301Z,2.23
2016-11-13T03:21:00.424Z,2.27
2016-11-13T03:22:00.348Z,2.26
2016-11-13T03:23:00.275Z,2.22
2016-11-13T03:24:00.425Z,2.13
2016-11-13T03:25:00.286Z,2.23
2016-11-13T03:26:00.432Z,2.24
2016-11-13T03:27:00.381Z,2.29
2016-11-13T03:28:00.473Z,2.27
2016-11-13T03:29:00.370Z,2.22
2016-11-13T03:30:00.308Z,2.18
2016-11-13T03:31:00.382Z,2.26
2016-11-13T03:32:00.382Z,2.22
2016-11-13T03:33:00.406Z,2.18
2016-11-13T03:34:00.454Z,2.16
2016-11-13T03:35:00.501Z,2.22
2016-11-13T03:36:00.437Z,2.27
2016-11-13T03:37:00.390Z,2.26
2016-11-13T03:38:00.323Z,2.26
2016-11-13T03:39:00.416Z,2.23
2016-11-13T03:40:00.407Z,2.15
2016-11-13T03:41:00.329Z,2.24
2016-11-13T03:42:00.331Z,2.24
2016-11-13T03:43:00.495Z,2.12
2016-11-13T03:44:00.504Z,2.22
2016-11-13T03:45:00.430Z,2.22
2016-11-13T03:46:00.342Z,2.27
2016-11-13T03:47:00.434Z,2.22
2016-11-13T03:48:00.366Z,2.23
2016-11-13T03:49:00.515Z,2.27
2016-11-13T03:50:00.387Z,2.24
2016-11-13T03:51:00.427Z,2.26
2016-11-13T03:52:00.442Z,2.2
2016-11-13T03:53:00.447Z,2.26
2016-11-13T03:54:00.440Z,2.3
2016-11-13T03:55:01.082Z,2.2
2016-11-13T03:56:00.448Z,2.24
2016-11-13T03:57:00.544Z,2.12
2016-11-13T03:58:00.446Z,2.27
2016-11-13T03:59:00.376Z,2.27
2016-11-13T04:00:00.392Z,2.24
2016-11-13T04:01:00.451Z,2.26
2016-11-13T04:02:00.389Z,2.24
2016-11-13T04:03:00.477Z,2.24
2016-11-13T04:04:00.484Z,2.15
2016-11-13T04:05:00.484Z,2.26
2016-11-13T04:06:00.407Z,2.22
2016-11-13T04:07:00.425Z,2.23
2016-11-13T04:08:00.563Z,2.13
2016-11-13T04:09:00.487Z,2.23
2016-11-13T04:10:00.499Z,2.26
2016-11-13T04:11:00.408Z,2.26
2016-11-13T04:12:00.512Z,2.24
2016-11-13T04:13:00.494Z,2.34
2016-11-13T04:14:00.503Z,2.27
2016-11-13T04:15:00.571Z,2.33
2016-11-13T04:16:00.527Z,2.3
2016-11-13T04:17:00.514Z,2.29
2016-11-13T04:18:00.659Z,2.22
2016-11-13T04:19:00.437Z,2.2
2016-11-13T04:20:00.504Z,2.3
2016-11-13T04:21:00.540Z,2.23
2016-11-13T04:22:00.526Z,2.26
2016-11-13T04:23:00.540Z,2.2
2016-11-13T04:24:00.521Z,2.27
2016-11-13T04:25:00.442Z,2.27
2016-11-13T04:26:00.596Z,2.23
2016-11-13T04:27:00.522Z,2.3
2016-11-13T04:28:00.538Z,2.2
2016-11-13T04:29:00.533Z,2.15
2016-11-13T04:30:00.456Z,2.26
2016-11-13T04:31:00.549Z,2.15
2016-11-13T04:32:00.478Z,2.3
2016-11-13T04:33:00.620Z,2.22
2016-11-13T04:34:00.574Z,2.16
2016-11-13T04:35:00.557Z,2.26
2016-11-13T04:36:00.626Z,2.18
2016-11-13T04:37:00.659Z,2.2
2016-11-13T04:38:00.568Z,2.23
2016-11-13T04:39:00.559Z,2.15
2016-11-13T04:40:00.569Z,2.06
2016-11-13T04:41:00.561Z,2.26
2016-11-13T04:42:00.494Z,2.15
2016-11-13T04:43:00.666Z,2.15
2016-11-13T04:44:00.560Z,2.18
2016-11-13T04:45:00.663Z,2.11
2016-11-13T04:46:00.656Z,2.2
2016-11-13T04:47:00.612Z,2.23
2016-11-13T04:48:00.695Z,2.15
2016-11-13T04:49:00.513Z,2.22
2016-11-13T04:50:00.671Z,2.27
2016-11-13T04:51:00.678Z,2.13
2016-11-13T04:52:00.595Z,2.15
2016-11-13T04:53:00.698Z,2.26
2016-11-13T04:54:00.688Z,2.16
2016-11-13T04:55:00.695Z,2.12
2016-11-13T04:56:00.614Z,2.18
2016-11-13T04:57:00.630Z,2.22
2016-11-13T04:58:00.537Z,2.15
2016-11-13T04:59:00.606Z,2.15
2016-11-13T05:00:00.738Z,2.18
2016-11-13T05:01:00.627Z,2.13
2016-11-13T05:02:00.621Z,2.15
2016-11-13T05:03:00.701Z,2.13
2016-11-13T05:04:00.646Z,2.26
2016-11-13T05:05:00.713Z,2.18
2016-11-13T05:06:00.636Z,2.18
2016-11-13T05:07:00.561Z,2.15
2016-11-13T05:08:00.719Z,2.15
2016-11-13T05:09:00.664Z,2.2
2016-11-13T05:10:00.584Z,2.2
2016-11-13T05:11:00.755Z,2.12
2016-11-13T05:12:00.642Z,2.04
2016-11-13T05:13:00.733Z,2.12
2016-11-13T05:14:00.753Z,2.04
2016-11-13T05:15:00.656Z,2.08
2016-11-13T05:16:00.663Z,2.06
2016-11-13T05:17:00.731Z,2.11
2016-11-13T05:18:00.680Z,2.12
2016-11-13T05:19:00.745Z,2.12
2016-11-13T05:20:00.723Z,2.09
2016-11-13T05:21:00.757Z,2.12
2016-11-13T05:22:00.763Z,2.06
2016-11-13T05:23:00.609Z,2.08
2016-11-13T05:24:00.682Z,2.05
2016-11-13T05:25:00.800Z,2.08
2016-11-13T05:26:00.772Z,2.06
2016-11-13T05:27:00.697Z,2.06
2016-11-13T05:28:00.777Z,2.04
2016-11-13T05:29:00.621Z,2.13
2016-11-13T05:30:00.714Z,2.04
2016-11-13T05:31:00.629Z,2.04
2016-11-13T05:32:00.777Z,2.06
2016-11-13T05:33:00.798Z,2.09
2016-11-13T05:34:00.729Z,2.06
2016-11-13T05:35:00.634Z,2.08
2016-11-13T05:36:00.728Z,2.04
2016-11-13T05:37:00.799Z,2.09
2016-11-13T05:38:00.799Z,2.05
2016-11-13T05:39:00.765Z,2.04
2016-11-13T05:40:00.657Z,1.97
2016-11-13T05:41:00.833Z,1.98
2016-11-13T05:42:00.730Z,2.11
2016-11-13T05:43:00.818Z,2.06
2016-11-13T05:44:00.859Z,2.08
2016-11-13T05:45:00.749Z,2.05
2016-11-13T05:46:00.759Z,2.05
2016-11-13T05:47:00.747Z,2.05
2016-11-13T05:48:00.770Z,2.04
2016-11-13T05:49:00.837Z,2.02
2016-11-13T05:50:00.747Z,2.05
2016-11-13T05:51:00.777Z,2.05
2016-11-13T05:52:00.707Z,2.09
2016-11-13T05:53:00.825Z,2.06
2016-11-13T05:54:00.896Z,2.06
2016-11-13T05:55:00.695Z,2.01
2016-11-13T05:56:00.762Z,1.93
2016-11-13T05:57:00.868Z,2.04
2016-11-13T05:58:00.759Z,1.98
2016-11-13T05:59:00.777Z,1.89
2016-11-13T06:00:00.704Z,1.9
2016-11-13T06:01:00.868Z,1.94
2016-11-13T06:02:00.775Z,1.97
2016-11-13T06:03:00.861Z,1.92
2016-11-13T06:04:00.867Z,1.87
2016-11-13T06:05:00.801Z,2.06
2016-11-13T06:06:00.712Z,2.01
2016-11-13T06:07:00.876Z,1.97
2016-11-13T06:08:00.747Z,2.02
2016-11-13T06:09:00.801Z,2.01
2016-11-13T06:10:00.821Z,1.97
2016-11-13T06:11:00.880Z,2.05
2016-11-13T06:12:00.744Z,2.04
2016-11-13T06:13:00.917Z,2.08
2016-11-13T06:14:00.827Z,2.01
2016-11-13T06:15:00.847Z,2.04
2016-11-13T06:16:00.845Z,2.11
2016-11-13T06:17:00.835Z,1.94
2016-11-13T06:18:00.826Z,2.08
2016-11-13T06:19:00.859Z,2.02
2016-11-13T06:20:00.780Z,2.09
2016-11-13T06:21:00.765Z,2.11
2016-11-13T06:22:00.971Z,2.06
2016-11-13T06:23:00.916Z,1.94
2016-11-13T06:24:00.939Z,1.98
2016-11-13T06:25:00.843Z,2.01
2016-11-13T06:26:00.772Z,2.01
2016-11-13T06:27:00.780Z,2.34
2016-11-13T06:28:00.866Z,2.06
2016-11-13T06:29:00.889Z,1.98
2016-11-13T06:30:00.948Z,2.05
2016-11-13T06:31:00.947Z,1.94
2016-11-13T06:32:00.870Z,1.9
2016-11-13T06:33:00.810Z,1.98
2016-11-13T06:34:00.871Z,2.04
2016-11-13T06:35:00.951Z,1.98
2016-11-13T06:36:00.971Z,1.94
2016-11-13T06:37:00.877Z,2.01
2016-11-13T06:38:00.936Z,1.89
2016-11-13T06:39:00.973Z,2.02
2016-11-13T06:40:00.839Z,2.04
2016-11-13T06:41:00.902Z,1.98
2016-11-13T06:42:00.991Z,1.86
2016-11-13T06:43:01.001Z,1.92
2016-11-13T06:44:01.005Z,2.01
2016-11-13T06:45:01.001Z,2.02
2016-11-13T06:46:00.926Z,1.94
2016-11-13T06:47:00.920Z,1.93
2016-11-13T06:48:00.916Z,1.98
2016-11-13T06:49:00.950Z,1.93
2016-11-13T06:50:00.923Z,2.02
2016-11-13T06:51:00.997Z,2.01
2016-11-13T06:52:00.927Z,1.98
2016-11-13T06:53:00.928Z,2.01
2016-11-13T06:54:00.943Z,2.01
2016-11-13T06:55:00.931Z,2.01
2016-11-13T06:56:00.879Z,1.98
2016-11-13T06:57:00.931Z,2.02
2016-11-13T06:58:00.853Z,2.01
2016-11-13T06:59:01.052Z,2.05
2016-11-13T07:00:01.027Z,2.02
2016-11-13T07:01:00.955Z,2.02
2016-11-13T07:02:00.954Z,2.06
2016-11-13T07:03:00.969Z,2.01
2016-11-13T07:04:00.950Z,2.04
2016-11-13T07:05:00.880Z,2.08
2016-11-13T07:06:00.902Z,2.04
2016-11-13T07:07:00.907Z,2.08
2016-11-13T07:08:01.042Z,2.09
2016-11-13T07:09:00.890Z,2.04
2016-11-13T07:10:00.976Z,2.11
2016-11-13T07:11:00.976Z,2.11
2016-11-13T07:12:01.016Z,2.11
2016-11-13T07:13:00.989Z,2.11
2016-11-13T07:14:00.992Z,2.01
2016-11-13T07:15:00.991Z,2.05
2016-11-13T07:16:00.908Z,2.08
2016-11-13T07:17:01.036Z,2.18
2016-11-13T07:18:00.920Z,2.09
2016-11-13T07:19:01.015Z,2.16
2016-11-13T07:20:01.091Z,2.15
2016-11-13T07:21:01.016Z,2.08
2016-11-13T07:22:01.007Z,2.15
2016-11-13T07:23:01.116Z,2.15
2016-11-13T07:24:00.937Z,2.12
2016-11-13T07:25:00.933Z,2.12
2016-11-13T07:26:01.091Z,2.04
2016-11-13T07:27:01.009Z,2.13
2016-11-13T07:28:01.048Z,2.15
2016-11-13T07:29:01.108Z,2.02
2016-11-13T07:30:01.023Z,2.16
2016-11-13T07:31:00.951Z,2.11
2016-11-13T07:32:01.034Z,2.18
2016-11-13T07:33:01.063Z,2.12
2016-11-13T07:34:00.974Z,2.23
2016-11-13T07:35:01.047Z,2.16
2016-11-13T07:36:01.053Z,2.2
2016-11-13T07:37:00.964Z,2.26
2016-11-13T07:38:01.080Z,2.31
2016-11-13T07:39:01.035Z,2.27
2016-11-13T07:40:01.125Z,2.26
2016-11-13T07:41:00.977Z,2.29
2016-11-13T07:42:01.132Z,2.24
2016-11-13T07:43:01.145Z,2.29
2016-11-13T07:44:01.092Z,2.31
2016-11-13T07:45:00.994Z,2.29
2016-11-13T07:46:01.004Z,2.27
2016-11-13T07:47:01.073Z,2.34
2016-11-13T07:48:01.027Z,2.4
2016-11-13T07:49:01.116Z,2.38
2016-11-13T07:50:01.081Z,2.4
2016-11-13T07:51:01.167Z,2.41
2016-11-13T07:52:01.117Z,2.29
2016-11-13T07:53:01.003Z,2.4
2016-11-13T07:54:01.140Z,2.38
2016-11-13T07:55:01.106Z,2.33
2016-11-13T07:56:01.117Z,2.34
2016-11-13T07:57:01.116Z,2.34
2016-11-13T07:58:01.180Z,2.4
2016-11-13T07:59:01.026Z,2.36
2016-11-13T08:00:01.127Z,2.45
2016-11-13T08:01:01.048Z,2.4
2016-11-13T08:02:01.132Z,2.45
2016-11-13T08:03:01.041Z,2.51
2016-11-13T08:04:01.194Z,2.48
2016-11-13T08:05:01.215Z,2.48
2016-11-13T08:06:01.121Z,2.55
2016-11-13T08:07:01.216Z,2.54
2016-11-13T08:08:01.153Z,2.58
2016-11-13T08:09:01.174Z,2.58
2016-11-13T08:10:01.075Z,2.66
2016-11-13T08:11:01.230Z,2.59
2016-11-13T08:12:01.227Z,2.55
2016-11-13T08:13:01.224Z,2.54
2016-11-13T08:14:01.170Z,2.67
2016-11-13T08:15:01.191Z,2.67
2016-11-13T08:16:01.158Z,2.63
2016-11-13T08:17:01.245Z,2.58
2016-11-13T08:18:01.154Z,2.55
2016-11-13T08:19:01.105Z,2.59
2016-11-13T08:20:01.088Z,2.49
2016-11-13T08:21:01.181Z,2.58
2016-11-13T08:22:01.161Z,2.52
2016-11-13T08:23:01.121Z,2.55
2016-11-13T08:24:01.095Z,2.63
2016-11-13T08:25:01.193Z,2.65
2016-11-13T08:26:01.473Z,2.69
2016-11-13T08:27:01.178Z,2.7
2016-11-13T08:28:01.301Z,2.87
2016-11-13T08:29:01.219Z,2.76
2016-11-13T08:30:01.107Z,2.91
2016-11-13T08:31:01.191Z,2.9
2016-11-13T08:32:01.132Z,2.78
2016-11-13T08:33:01.191Z,2.84
2016-11-13T08:34:01.134Z,2.83
2016-11-13T08:35:01.190Z,2.83
2016-11-13T08:36:01.150Z,2.95
2016-11-13T08:37:01.233Z,2.96
2016-11-13T08:38:01.297Z,3.05
2016-11-13T08:39:01.227Z,3.06
2016-11-13T08:40:01.217Z,3.06
2016-11-13T08:41:01.296Z,2.99
2016-11-13T08:42:01.311Z,3.14
2016-11-13T08:43:01.233Z,3.03
2016-11-13T08:44:01.221Z,3.06
2016-11-13T08:45:01.190Z,2.81
2016-11-13T08:46:01.238Z,2.85
2016-11-13T08:47:01.244Z,2.98
2016-11-13T08:48:01.188Z,2.95
2016-11-13T08:49:01.265Z,2.83
2016-11-13T08:50:01.182Z,2.83
2016-11-13T08:51:01.337Z,2.76
2016-11-13T08:52:01.247Z,2.78
2016-11-13T08:53:01.363Z,2.77
2016-11-13T08:54:01.206Z,2.91
2016-11-13T08:55:01.344Z,2.85
2016-11-13T08:56:01.379Z,2.93
2016-11-13T08:57:01.268Z,3.01
2016-11-13T08:58:01.215Z,2.91
2016-11-13T08:59:01.284Z,2.78
2016-11-13T09:00:01.277Z,2.93
2016-11-13T09:01:01.266Z,2.96
2016-11-13T09:02:01.365Z,2.88
2016-11-13T09:03:01.359Z,2.91
2016-11-13T09:04:01.241Z,2.91
2016-11-13T09:05:01.377Z,2.87
2016-11-13T09:06:01.353Z,2.99
2016-11-13T09:07:01.369Z,2.88
2016-11-13T09:08:01.209Z,2.91
2016-11-13T09:09:01.406Z,2.98
2016-11-13T09:10:01.314Z,2.87
2016-11-13T09:11:01.308Z,2.84
2016-11-13T09:12:01.220Z,2.78
2016-11-13T09:13:01.301Z,2.87
2016-11-13T09:14:01.321Z,2.98
2016-11-13T09:15:01.391Z,2.95
2016-11-13T09:16:01.363Z,2.99
2016-11-13T09:17:01.332Z,3.01
2016-11-13T09:18:01.326Z,2.99
2016-11-13T09:19:01.309Z,2.98
2016-11-13T09:20:01.421Z,3.03
2016-11-13T09:21:01.410Z,3.02
2016-11-13T09:22:01.261Z,3.05
2016-11-13T09:23:01.427Z,3.06
2016-11-13T09:24:01.423Z,2.95
2016-11-13T09:25:01.377Z,3.16
2016-11-13T09:26:01.338Z,3.27
2016-11-13T09:27:01.460Z,3.3
2016-11-13T09:28:01.283Z,3.26
2016-11-13T09:29:01.367Z,3.24
2016-11-13T09:30:01.360Z,3.2
2016-11-13T09:31:01.279Z,3.3
2016-11-13T09:32:01.368Z,3.4
2016-11-13T09:33:01.455Z,3.57
2016-11-13T09:34:01.376Z,3.56
2016-11-13T09:35:01.358Z,3.32
2016-11-13T09:36:01.307Z,3.26
2016-11-13T09:37:01.374Z,3.34
2016-11-13T09:38:01.374Z,3.42
2016-11-13T09:39:01.298Z,3.4
2016-11-13T09:40:01.300Z,3.53
2016-11-13T09:41:01.498Z,3.75
2016-11-13T09:42:01.402Z,3.76
2016-11-13T09:43:01.316Z,3.86
2016-11-13T09:44:01.327Z,3.79
2016-11-13T09:45:01.394Z,3.76
2016-11-13T09:46:01.405Z,3.97
2016-11-13T09:47:01.390Z,3.92
2016-11-13T09:48:01.326Z,4
2016-11-13T09:49:01.493Z,4.15
2016-11-13T09:50:01.408Z,3.97
2016-11-13T09:51:01.441Z,3.97
2016-11-13T09:52:01.462Z,4
2016-11-13T09:53:01.406Z,3.89
2016-11-13T09:54:01.501Z,3.74
2016-11-13T09:55:01.431Z,3.76
2016-11-13T09:56:01.510Z,3.56
2016-11-13T09:57:01.457Z,3.63
2016-11-13T09:58:01.433Z,3.76
2016-11-13T09:59:01.516Z,3.78
2016-11-13T10:00:01.354Z,3.75
2016-11-13T10:01:01.358Z,3.76
2016-11-13T10:02:01.457Z,3.75
2016-11-13T10:03:01.371Z,3.74
2016-11-13T10:04:01.529Z,3.61
2016-11-13T10:05:01.527Z,3.53
2016-11-13T10:06:01.537Z,3.54
2016-11-13T10:07:01.460Z,3.46
2016-11-13T10:08:01.487Z,3.57
2016-11-13T10:09:01.482Z,3.78
2016-11-13T10:10:01.380Z,3.86
2016-11-13T10:11:01.551Z,3.86
2016-11-13T10:12:01.410Z,3.89
2016-11-13T10:13:01.572Z,3.9
2016-11-13T10:14:01.391Z,4.02
2016-11-13T10:15:01.553Z,3.82
2016-11-13T10:16:01.390Z,3.93
2016-11-13T10:17:01.472Z,3.67
2016-11-13T10:18:01.492Z,3.61
2016-11-13T10:19:01.574Z,3.66
2016-11-13T10:20:01.495Z,3.63
2016-11-13T10:21:01.496Z,3.74
2016-11-13T10:22:01.502Z,3.86
2016-11-13T10:23:01.583Z,3.86
2016-11-13T10:24:01.516Z,3.94
2016-11-13T10:25:01.427Z,3.99
2016-11-13T10:26:01.505Z,4.04
2016-11-13T10:27:01.504Z,4.28
2016-11-13T10:28:01.608Z,3.94
2016-11-13T10:29:01.537Z,3.74
2016-11-13T10:30:01.465Z,3.78
2016-11-13T10:31:01.527Z,3.69
2016-11-13T10:32:01.609Z,3.72
2016-11-13T10:33:01.602Z,3.9
2016-11-13T10:34:01.610Z,4.04
2016-11-13T10:35:01.611Z,3.85
2016-11-13T10:36:01.547Z,3.92
2016-11-13T10:37:01.541Z,3.94
2016-11-13T10:38:01.644Z,4.02
2016-11-13T10:39:01.539Z,4.03
2016-11-13T10:40:01.660Z,3.93
2016-11-13T10:41:01.629Z,3.9
2016-11-13T10:42:01.487Z,3.9
2016-11-13T10:43:01.629Z,3.93
2016-11-13T10:44:01.558Z,3.99
2016-11-13T10:45:01.579Z,4.12
2016-11-13T10:46:01.489Z,4.2
2016-11-13T10:47:01.652Z,4.03
2016-11-13T10:48:01.648Z,4.08
2016-11-13T10:49:01.650Z,4.02
2016-11-13T10:50:01.503Z,4.15
2016-11-13T10:51:01.574Z,4.26
2016-11-13T10:52:01.505Z,4.29
2016-11-13T10:53:01.609Z,4.15
2016-11-13T10:54:01.596Z,4.4
2016-11-13T10:55:01.614Z,4.42
2016-11-13T10:56:01.530Z,4.28
2016-11-13T10:57:01.602Z,4.22
2016-11-13T10:58:01.538Z,4.18
2016-11-13T10:59:01.608Z,3.99
2016-11-13T11:00:01.609Z,4.18
2016-11-13T11:01:01.542Z,4.12
2016-11-13T11:02:01.690Z,4.35
2016-11-13T11:03:01.619Z,4.51
2016-11-13T11:04:01.616Z,4.3
2016-11-13T11:05:01.617Z,4.3
2016-11-13T11:06:01.542Z,4.54
2016-11-13T11:07:01.712Z,4.46
2016-11-13T11:08:01.614Z,4.38
2016-11-13T11:09:01.551Z,4.38
2016-11-13T11:10:01.544Z,4.28
2016-11-13T11:11:01.632Z,4.51
2016-11-13T11:12:01.580Z,4.5
2016-11-13T11:13:01.635Z,4.64
2016-11-13T11:14:01.734Z,4.9
2016-11-13T11:15:01.642Z,4.98
2016-11-13T11:16:01.571Z,5.02
2016-11-13T11:17:01.591Z,5.2
2016-11-13T11:18:01.732Z,5.28
2016-11-13T11:19:01.656Z,5.24
2016-11-13T11:20:01.659Z,5.05
2016-11-13T11:21:01.673Z,4.84
2016-11-13T11:22:01.676Z,4.71
2016-11-13T11:23:01.757Z,4.61
2016-11-13T11:24:01.596Z,4.57
2016-11-13T11:25:01.688Z,4.71
2016-11-13T11:26:01.613Z,4.74
2016-11-13T11:27:01.757Z,4.61
2016-11-13T11:28:01.706Z,4.65
2016-11-13T11:29:01.600Z,4.58
2016-11-13T11:30:01.776Z,4.72
2016-11-13T11:31:01.685Z,5
2016-11-13T11:32:01.628Z,4.98
2016-11-13T11:33:01.633Z,5.15
2016-11-13T11:34:01.780Z,5.18
2016-11-13T11:35:01.710Z,5.12
2016-11-13T11:36:01.624Z,5.18
2016-11-13T11:37:01.703Z,5.21
2016-11-13T11:38:01.650Z,5.24
2016-11-13T11:39:01.790Z,5.26
2016-11-13T11:40:01.700Z,5.26
2016-11-13T11:41:01.722Z,5.34
2016-11-13T11:42:01.744Z,5.24
2016-11-13T11:43:01.658Z,4.98
2016-11-13T11:44:01.678Z,4.84
2016-11-13T11:45:01.809Z,4.92
2016-11-13T11:46:01.731Z,4.85
2016-11-13T11:47:01.746Z,4.91
2016-11-13T11:48:01.789Z,4.92
2016-11-13T11:49:01.761Z,5.27
2016-11-13T11:50:01.757Z,5.62
2016-11-13T11:51:01.829Z,5.63
2016-11-13T11:52:01.742Z,5.7
2016-11-13T11:53:01.739Z,5.78
2016-11-13T11:54:01.742Z,5.66
2016-11-13T11:55:01.747Z,5.59
2016-11-13T11:56:01.769Z,5.64
2016-11-13T11:57:01.780Z,5.48
2016-11-13T11:58:01.678Z,5.16
2016-11-13T11:59:01.765Z,5
2016-11-13T12:00:01.759Z,5.18
2016-11-13T12:01:01.770Z,5.13
2016-11-13T12:02:01.763Z,4.98
2016-11-13T12:03:01.800Z,5.06
2016-11-13T12:04:01.892Z,4.97
2016-11-13T12:05:01.880Z,5.03
2016-11-13T12:06:01.874Z,5
2016-11-13T12:07:01.793Z,5.09
2016-11-13T12:08:01.792Z,4.92
2016-11-13T12:09:01.788Z,4.95
2016-11-13T12:10:01.795Z,4.98
2016-11-13T12:11:01.793Z,5.23
2016-11-13T12:12:01.802Z,5.24
2016-11-13T12:13:01.812Z,5.18
2016-11-13T12:14:01.718Z,5.06
2016-11-13T12:15:01.836Z,5.12
2016-11-13T12:16:01.822Z,5.24
2016-11-13T12:17:01.913Z,5.2
2016-11-13T12:18:01.893Z,5.46
2016-11-13T12:19:01.921Z,5.77
2016-11-13T12:20:01.816Z,5.85
2016-11-13T12:21:01.752Z,5.98
2016-11-13T12:22:01.834Z,5.96
2016-11-13T12:23:01.914Z,5.73
2016-11-13T12:24:01.775Z,5.66
2016-11-13T12:25:01.765Z,5.66
2016-11-13T12:26:01.755Z,5.8
2016-11-13T12:27:01.826Z,5.88
2016-11-13T12:28:01.783Z,5.96
2016-11-13T12:29:01.781Z,5.78
2016-11-13T12:30:01.937Z,5.49
2016-11-13T12:31:01.847Z,5.41
2016-11-13T12:32:01.873Z,5.27
2016-11-13T12:33:01.911Z,5.44
2016-11-13T12:34:01.863Z,5.52
2016-11-13T12:35:01.928Z,5.46
2016-11-13T12:36:01.878Z,5.46
2016-11-13T12:37:01.885Z,5.36
2016-11-13T12:38:01.892Z,5.36
2016-11-13T12:39:01.983Z,5.36
2016-11-13T12:40:01.886Z,5.28
2016-11-13T12:41:01.798Z,5.36
2016-11-13T12:42:01.875Z,5.3
2016-11-13T12:43:01.881Z,5.33
2016-11-13T12:44:01.893Z,5.41
2016-11-13T12:45:01.902Z,5.49
2016-11-13T12:46:01.962Z,5.7
2016-11-13T12:47:01.949Z,5.89
2016-11-13T12:48:01.929Z,6.03
2016-11-13T12:49:01.849Z,5.95
2016-11-13T12:50:01.918Z,5.96
2016-11-13T12:51:01.932Z,5.92
2016-11-13T12:52:01.929Z,5.95
2016-11-13T12:53:02.009Z,5.87
2016-11-13T12:54:01.829Z,5.89
2016-11-13T12:55:01.997Z,6.03
2016-11-13T12:56:01.922Z,6.07
2016-11-13T12:57:02.367Z,6.03
2016-11-13T12:58:01.936Z,5.95
2016-11-13T12:59:01.937Z,5.92
2016-11-13T13:00:01.939Z,5.82
2016-11-13T13:01:01.961Z,5.85
2016-11-13T13:02:02.016Z,5.77
2016-11-13T13:03:01.942Z,5.7
2016-11-13T13:04:01.983Z,5.88
2016-11-13T13:05:01.951Z,5.78
2016-11-13T13:06:01.959Z,5.82
2016-11-13T13:07:02.032Z,5.8
2016-11-13T13:08:02.034Z,5.81
2016-11-13T13:09:01.976Z,5.87
2016-11-13T13:10:02.054Z,5.87
2016-11-13T13:11:01.968Z,5.66
2016-11-13T13:12:01.892Z,5.6
2016-11-13T13:13:01.875Z,5.72
2016-11-13T13:14:02.054Z,5.84
2016-11-13T13:15:01.912Z,5.88
2016-11-13T13:16:01.986Z,5.99
2016-11-13T13:17:01.910Z,5.78
2016-11-13T13:18:02.058Z,5.81
2016-11-13T13:19:02.006Z,5.84
2016-11-13T13:20:01.940Z,5.67
2016-11-13T13:21:02.001Z,5.52